MMLM/LMM METAR and TAF weather

Enter ICAO airport designator
Station Type Date Time Source
MMLM METAR 2022/05/24 23:40 UTC NOAA

MMLM 242340Z 22010KT 10SM SKC 26/17 A2976 RMK SLP078 HZY


Station Type Date Time Source
MMLM Decoded METAR 2022/05/24 23:40 UTC NOAA

Los Mochis Airport, Mexico (MMLM) 25-41N 109-05W
May 24, 2022 - 07:40 PM EDT / 2022.05.24 2340 UTC
Wind: from the SW (220 degrees) at 12 MPH (10 KT):0
Visibility: 10 mile(s):0
Sky conditions: clear
Temperature: 78 F (26 C)
Dew Point: 62 F (17 C)
Relative Humidity: 57%
Pressure (altimeter): 29.76 in. Hg (1007 hPa)
ob: MMLM 242340Z 22010KT 10SM SKC 26/17 A2976 RMK SLP078 HZY
cycle: 23

Station Type Date Time Source
MMLM TAF 2022/05/24 18:59 UTC NOAA

TAF MMLM 241642Z 2418/2518 12010KT P6SM SCT020
FM242000 24015KT P6SM SKC
TEMPO 2512/2515 3SM BR

Example: see airport list